Terminal Aerodrome Forecast
Issued by NWS Louisville, KY

Home | Current Version | Previous Version | Text Only | Print | Product List | Glossary On
Versions: 1 2 3 4 5 6 7 8 9 10 11 12 13 14 15 16 17 18 19 20 21 22 23
000
FTUS43 KLMK 020200 AAA
TAFSDF
TAF AMD
KSDF 020252Z 0203/0306 23004KT P6SM SCT030 BKN150
     FM020400 20004KT 4SM -SHRA VCTS BKN035CB
     FM020600 20004KT P6SM VCTS BKN040CB
     FM020900 21005KT 4SM SHRA VCTS BKN035CB
     FM021800 22007KT P6SM VCTS BKN040CB=

USA.gov is the U.S. government's official web portal to all federal, state and local government web resources and services.